• Join FlightAware (Why Join?)
  • Login
  • US Flag 
08:37PM EDT


 

Airport Tracker/Info


-or-


 

Live Flight TrackerFlight Track Log ✈ AWE3418 ✈ 21-Apr-2013 ✈ KPHL - KMHT

Flight Track Log - Related Links

Times and Time Zones

All times are in EDT time to prevent confusion due to time zone crossing. See the AWE3418 flight status page for this flight to view local times or setup timezone preferences in your user account.

Time Position Orientation Groundspeed Altitude Reporting Facility
EDT Latitude Longitude Course Direction KTS MPH feet Rate Location/Type
07:54PM 39.8747 -75.2097 37° Northeast 141 162 1,300  Level FAA TRACON SMA TRACON (SMA)
07:54PM 39.8736 -75.1914 95° East 160 184 2,000 1,500 Climbing FAA TRACON SMA TRACON (SMA)
07:54PM 39.8717 -75.1706 97° East 168 193 2,300 1,500 Climbing FAA TRACON SMA TRACON (SMA)
07:55PM 39.8678 -75.1475 102° East 207 238 3,000 2,340 Climbing FAA TRACON SMA TRACON (SMA)
07:55PM 39.8639 -75.1244 102° East 215 247 3,900 3,420 Climbing FAA TRACON SMA TRACON (SMA)
07:55PM 39.8589 -75.0944 102° East 219 252 5,300 3,360 Climbing FAA TRACON SMA TRACON (SMA)
07:56PM 39.8167 -74.8830 90° East  Level FlightAware Approximate
07:56PM 39.8553 -75.0722 102° East 225 259 6,100  Level FAA TRACON SMA TRACON (SMA)
07:56PM 39.8489 -75.0369 103° East 231 266 7,700 3,600 Climbing FAA TRACON SMA TRACON (SMA)
07:56PM 39.8442 -75.0114 104° East 235 270 8,600 1,920 Climbing FAA TRACON SMA TRACON (SMA)
07:57PM 39.7962 -74.7642 105° East  Level FlightAware Approximate
07:57PM 39.8414 -74.9889 99° East 245 282 9,000  Level FAA TRACON SMA TRACON (SMA)
07:57PM 39.8342 -74.9519 104° East 289 333 9,900 2,880 Climbing FAA TRACON SMA TRACON (SMA)
07:57PM 39.8275 -74.9133 103° East 285 328 11,000 2,820 Climbing FAA TRACON SMA TRACON (SMA)
07:58PM 39.8173 -74.6661 37° Northeast  Level FlightAware Approximate
07:58PM 39.8219 -74.8806 102° East 296 341 11,800  Level FAA TRACON SMA TRACON (SMA)
07:58PM 39.8161 -74.8486 103° East 298 343 12,000 1,020 Climbing FAA TRACON SMA TRACON (SMA)
07:58PM 39.8097 -74.8061 101° East 307 353 12,500 2,220 Climbing FAA TRACON SMA TRACON (SMA)
07:59PM 39.8918 -74.5916 37° Northeast  Level FlightAware Approximate
07:59PM 39.8147 -74.7714 79° East 317 365 13,500  Level FAA TRACON SMA TRACON (SMA)
07:59PM 39.8333 -74.7367 55° Northeast 316 364 14,400 2,760 Climbing FAA TRACON SMA TRACON (SMA)
07:59PM 39.8544 -74.7114 43° Northeast 324 373 15,400 2,700 Climbing FAA TRACON SMA TRACON (SMA)
08:00PM 39.8750 -74.6869 42° Northeast 329 379 16,200 2,460 Climbing FAA TRACON SMA TRACON (SMA)
08:00PM 39.8953 -74.6617 44° Northeast 327 376 17,000 2,520 Climbing FAA TRACON SMA TRACON (SMA)
08:00PM 39.9211 -74.6294 44° Northeast 333 383 17,900 1,440 Climbing FAA TRACON SMA TRACON (SMA)
08:01PM 39.9436 -74.6006 45° Northeast 341 392 18,000 120 Climbing FAA TRACON SMA TRACON (SMA)
08:01PM 39.9436 -74.6006 72° East 341 392 18,000 1,800 Level FAA TRACON SMA TRACON (SMA)
08:03PM 40.1569 -74.3586 41° Northeast 377 434 23,100 2,040 Climbing New York Center
08:04PM 40.2472 -74.2708 37° Northeast 391 450 25,100 1,740 Climbing New York Center
08:05PM 40.3375 -74.1747 39° Northeast 401 461 26,700 1,440 Climbing New York Center
08:06PM 40.4417 -74.1006 28° Northeast 413 475 28,000 1,140 Climbing New York Center
08:07PM 40.5461 -74.0211 30° Northeast 424 488 29,000 480 Climbing New York Center
08:08PM 40.6567 -73.9389 29° Northeast 437 503 29,000  Level New York Center
08:10PM 40.8561 -73.8122 26° Northeast 458 527 29,000  Level Boston Center
08:11PM 40.9792 -73.7956 North 444 511 29,000  Level Boston Center
08:12PM 41.1022 -73.8008 358° North 432 497 29,000  Level Boston Center
08:13PM 41.2250 -73.8033 359° North 432 497 29,000  Level Boston Center
08:14PM 41.3481 -73.8117 357° North 437 503 29,000  Level Boston Center
08:15PM 41.4647 -73.8142 359° North 437 503 29,000  Level Boston Center
08:16PM 41.5856 -73.8167 359° North 432 497 29,000  Level Boston Center
08:17PM 41.7042 -73.8219 358° North 432 497 29,000  Level Boston Center
08:18PM 41.8231 -73.8247 359° North 427 491 29,000  Level Boston Center
08:19PM 41.9439 -73.8217 North 427 491 29,000  Level Boston Center
08:20PM 42.0647 -73.8189 North 427 491 29,000  Level Boston Center
08:21PM 42.1836 -73.8158 North 422 486 29,000  Level Boston Center
08:22PM 42.3025 -73.8156 360° North 422 486 29,000  Level Boston Center
08:23PM 42.4233 -73.8125 North 422 486 29,000 -720 Level Boston Center
08:24PM 42.5400 -73.8125 360° North 422 486 27,600 -1,440 Descending Boston Center
08:25PM 42.6531 -73.7781 13° North 411 473 26,200 -1,320 Descending Boston Center
08:26PM 42.7378 -73.6642 45° Northeast 396 456 25,000 -720 Descending Boston Center
08:27PM 42.7578 -73.5344 78° East 382 440 24,800 -600 Descending Boston Center
08:28PM 42.7678 -73.3592 85° East 381 438 23,800 -1,380 Descending Boston Center
08:29PM 42.7708 -73.2008 88° East 409 471 22,100 -1,740 Descending Boston Center
08:30PM 42.7761 -73.0453 87° East 409 471 20,400 -1,560 Descending Boston Center
08:31PM 42.7789 -72.8983 88° East 400 460 19,000 -1,200 Descending Boston Center
08:32PM 42.7833 -72.7511 88° East 388 447 18,000 -1,200 Descending Boston Center
08:33PM 42.7858 -72.6128 89° East 377 434 16,600 -1,500 Descending Boston Center
08:34PM 42.7900 -72.4769 88° East 364 419 15,000 -1,500 Descending Boston Center
08:35PM 42.7942 -72.3439 88° East 354 407 13,600 -1,440 Descending Boston Center
08:36PM 42.8003 -72.2081 86° East 341 392 12,200 -1,500 Descending Boston Center
08:37PM 42.8103 -72.0864 84° East 328 377 10,700 -1,200 Descending Boston Center
08:38PM 42.8183 -71.9758 84° East 308 354 9,800 -1,260 Descending Boston Center
08:39PM 42.8261 -71.8711 84° East 284 327 8,200 -1,500 Descending Boston Center
08:40PM 42.8194 -71.7719 95° East 265 305 6,900 -1,440 Descending Boston Center
08:41PM 42.8106 -71.6703 97° East 265 305 5,400 -1,440 Descending Boston Center
08:42PM 42.8056 -71.5825 94° East 259 298 4,100 -1,200 Descending Boston Center
08:43PM 42.7986 -71.4950 96° East 224 258 3,000 -660 Descending Boston Center
08:44PM 42.8022 -71.4297 86° East 194 223 2,800 -300 Descending Boston Center
08:45PM 42.8269 -71.3758 58° Northeast 173 199 2,400 -660 Descending Boston Center
08:46PM 42.8625 -71.3950 338° Northwest 129 148 1,500 -900 Descending Boston Center
08:47PM 42.9022 -71.4169 338° Northwest 140 161 600 8,700 Descending Boston Center
08:48PM 42.9400 -71.4417 334° Northwest 140 161 19,000 9,180 Climbing Boston Center
08:49PM 42.9756 -71.4694 330° Northwest 140 161 19,000  Level Boston Center
08:50PM 43.0133 -71.4975 331° Northwest 140 161 19,000  Level Boston Center